createdAt,value
2018-01-30T00:02:28.908Z,88.89
2018-01-30T00:04:59.229Z,89.20
2018-01-30T00:07:26.682Z,89.24
2018-01-30T00:09:54.123Z,87.50
2018-01-30T00:12:21.592Z,86.29
2018-01-30T00:15:17.648Z,85.87
2018-01-30T00:17:49.817Z,83.96
2018-01-30T00:20:17.284Z,81.25
2018-01-30T00:22:44.825Z,81.26
2018-01-30T00:25:27.956Z,82.23
2018-01-30T00:27:56.325Z,79.66
2018-01-30T00:30:23.820Z,79.03
2018-01-30T00:32:54.349Z,78.96
2018-01-30T00:35:21.784Z,80.40
2018-01-30T00:37:49.413Z,82.18
2018-01-30T00:40:17.689Z,82.08
2018-01-30T00:42:45.146Z,80.24
2018-01-30T00:45:22.313Z,80.99
2018-01-30T00:47:49.773Z,81.76
2018-01-30T00:50:19.288Z,82.23
2018-01-30T00:52:46.750Z,82.34
2018-01-30T00:55:20.973Z,82.88
2018-01-30T00:57:48.430Z,83.13
2018-01-30T01:00:22.801Z,83.73
2018-01-30T01:02:50.262Z,83.67
2018-01-30T01:05:32.584Z,81.95
2018-01-30T01:08:06.524Z,81.68
2018-01-30T01:10:47.586Z,80.67
2018-01-30T01:13:15.789Z,81.94
2018-01-30T01:15:43.809Z,82.85
2018-01-30T01:18:14.694Z,82.37
2018-01-30T01:20:57.037Z,80.84
2018-01-30T01:23:27.452Z,82.44
2018-01-30T01:25:54.909Z,81.98
2018-01-30T01:28:22.416Z,81.85
2018-01-30T01:31:04.748Z,83.78
2018-01-30T01:33:36.709Z,85.68
2018-01-30T01:36:19.309Z,87.27
2018-01-30T01:38:59.172Z,85.21
2018-01-30T01:41:29.582Z,83.48
2018-01-30T01:49:42.289Z,80.43
2018-01-30T01:52:09.724Z,79.39
2018-01-30T01:54:37.191Z,79.88
2018-01-30T01:57:04.636Z,79.53
2018-01-30T01:59:32.077Z,80.36
2018-01-30T02:01:59.535Z,80.54
2018-01-30T02:04:26.989Z,80.06
2018-01-30T02:06:54.639Z,79.31
2018-01-30T02:09:22.073Z,79.42
2018-01-30T02:11:49.545Z,79.95
2018-01-30T02:14:17.003Z,80.73
2018-01-30T02:16:45.472Z,80.54
2018-01-30T02:19:12.944Z,79.79
2018-01-30T02:21:40.401Z,81.26
2018-01-30T02:24:07.855Z,81.36
2018-01-30T02:26:35.325Z,80.89
2018-01-30T02:29:03.256Z,80.22
2018-01-30T02:31:30.933Z,80.54
2018-01-30T02:33:58.437Z,80.37
2018-01-30T02:36:25.841Z,80.73
2018-01-30T02:38:53.336Z,81.00
2018-01-30T02:41:21.167Z,81.04
2018-01-30T02:43:49.034Z,80.94
2018-01-30T02:46:16.473Z,80.12
2018-01-30T02:48:43.912Z,80.68
2018-01-30T02:51:11.381Z,81.42
2018-01-30T02:53:38.980Z,81.77
2018-01-30T02:56:06.449Z,81.15
2018-01-30T02:58:33.897Z,81.06
2018-01-30T03:01:01.341Z,81.29
2018-01-30T03:03:28.801Z,82.28
2018-01-30T03:05:58.593Z,83.28
2018-01-30T03:08:26.286Z,84.45
2018-01-30T03:10:53.724Z,85.25
2018-01-30T03:13:21.163Z,86.35
2018-01-30T03:15:48.616Z,87.31
2018-01-30T03:18:16.052Z,86.98
2018-01-30T03:20:43.529Z,87.85
2018-01-30T03:23:10.965Z,88.85
2018-01-30T03:25:38.405Z,89.70
2018-01-30T03:28:05.892Z,89.65
2018-01-30T03:30:33.337Z,88.53
2018-01-30T03:33:00.817Z,86.74
2018-01-30T03:35:28.267Z,87.63
2018-01-30T03:37:55.710Z,87.76
2018-01-30T03:40:23.169Z,87.11
2018-01-30T03:42:50.613Z,87.03
2018-01-30T03:45:18.297Z,87.49
2018-01-30T03:47:45.737Z,88.15
2018-01-30T03:50:13.208Z,88.34
2018-01-30T03:52:40.660Z,88.48
2018-01-30T03:55:08.104Z,88.94
2018-01-30T03:57:36.059Z,88.87
2018-01-30T04:00:03.493Z,88.10
2018-01-30T04:02:30.932Z,88.13
2018-01-30T04:04:58.533Z,88.16
2018-01-30T04:07:25.976Z,88.05
2018-01-30T04:09:53.851Z,89.10
2018-01-30T04:12:21.313Z,89.49
2018-01-30T04:14:48.748Z,88.85
2018-01-30T04:17:16.213Z,89.40
2018-01-30T04:19:43.673Z,89.40
2018-01-30T04:22:11.248Z,89.46
2018-01-30T04:24:38.688Z,87.44
2018-01-30T04:27:06.128Z,89.06
2018-01-30T04:29:33.584Z,89.87
2018-01-30T04:32:01.033Z,89.46
2018-01-30T04:34:28.508Z,89.35
2018-01-30T04:36:55.968Z,88.81
2018-01-30T04:39:23.404Z,89.99
2018-01-30T04:41:53.794Z,89.40
2018-01-30T04:44:22.985Z,89.02
2018-01-30T04:46:54.693Z,88.57
2018-01-30T04:49:22.149Z,89.53
2018-01-30T04:51:49.585Z,88.29
2018-01-30T04:54:17.949Z,89.08
2018-01-30T04:56:59.748Z,87.88
2018-01-30T04:59:29.277Z,88.39
2018-01-30T05:02:08.625Z,88.72
2018-01-30T05:04:36.149Z,88.53
2018-01-30T05:07:05.285Z,89.69
2018-01-30T05:09:42.717Z,89.10
2018-01-30T05:12:14.253Z,89.94
2018-01-30T05:14:45.409Z,89.95
2018-01-30T05:17:14.711Z,89.54
2018-01-30T05:19:42.162Z,89.25
2018-01-30T05:22:26.313Z,88.89
2018-01-30T05:24:55.154Z,88.94
2018-01-30T05:27:33.821Z,88.62
2018-01-30T05:30:01.257Z,88.42
2018-01-30T05:32:32.092Z,89.82
2018-01-30T05:35:03.356Z,89.59
2018-01-30T05:37:43.305Z,89.57
2018-01-30T05:40:13.113Z,89.94
2018-01-30T05:42:42.700Z,89.76
2018-01-30T05:45:26.024Z,88.78
2018-01-30T05:47:57.891Z,89.64
2018-01-30T05:50:27.634Z,89.38
2018-01-30T05:53:00.157Z,89.75
2018-01-30T05:55:29.092Z,88.99
2018-01-30T05:58:09.940Z,89.98
2018-01-30T06:00:38.154Z,88.73
2018-01-30T06:03:13.778Z,89.33
2018-01-30T06:05:41.458Z,89.16
2018-01-30T06:08:09.500Z,89.87
2018-01-30T06:10:38.887Z,89.69
2018-01-30T06:13:07.904Z,89.26
2018-01-30T06:15:51.358Z,89.27
2018-01-30T06:18:18.816Z,89.18
2018-01-30T06:20:46.274Z,89.02
2018-01-30T06:23:15.957Z,89.24
2018-01-30T06:25:53.736Z,88.88
2018-01-30T06:28:22.002Z,88.59
2018-01-30T06:30:51.217Z,89.29
2018-01-30T06:33:19.692Z,89.22
2018-01-30T06:35:47.149Z,89.41
2018-01-30T06:38:14.596Z,89.46
2018-01-30T06:40:43.207Z,89.65
2018-01-30T06:43:10.646Z,89.56
2018-01-30T06:45:38.150Z,89.24
2018-01-30T06:48:05.598Z,89.71
2018-01-30T06:50:33.032Z,89.87
2018-01-30T06:53:00.513Z,89.92
2018-01-30T06:55:27.945Z,90.18
2018-01-30T06:57:55.545Z,89.69
2018-01-30T07:00:23.587Z,89.42
2018-01-30T07:02:51.069Z,88.90
2018-01-30T07:05:18.548Z,89.15
2018-01-30T07:07:46.032Z,89.77
2018-01-30T07:10:13.508Z,89.41
2018-01-30T07:12:41.183Z,89.43
2018-01-30T07:15:08.645Z,89.49
2018-01-30T07:17:36.105Z,89.34
2018-01-30T07:20:03.543Z,89.20
2018-01-30T07:22:31.229Z,89.42
2018-01-30T07:24:59.401Z,89.24
2018-01-30T07:27:26.882Z,89.85
2018-01-30T07:29:54.357Z,90.30
2018-01-30T07:34:50.017Z,90.65
2018-01-30T07:37:17.452Z,90.05
2018-01-30T07:39:44.900Z,89.85
2018-01-30T07:42:14.168Z,89.98
2018-01-30T07:44:41.609Z,90.45
2018-01-30T07:47:09.085Z,90.87
2018-01-30T07:49:36.528Z,90.45
2018-01-30T07:52:03.988Z,90.82
2018-01-30T07:54:31.472Z,90.94
2018-01-30T07:56:58.940Z,91.03
2018-01-30T07:59:26.549Z,90.88
2018-01-30T08:01:54.012Z,90.98
2018-01-30T08:04:21.480Z,91.13
2018-01-30T08:06:48.948Z,91.95
2018-01-30T08:09:16.392Z,91.57
2018-01-30T08:11:43.869Z,91.12
2018-01-30T08:14:11.328Z,91.33
2018-01-30T08:16:38.760Z,91.63
2018-01-30T08:19:06.282Z,91.76
2018-01-30T08:21:33.742Z,90.86
2018-01-30T08:24:01.226Z,91.13
2018-01-30T08:26:28.671Z,90.58
2018-01-30T08:28:56.304Z,89.67
2018-01-30T08:31:23.762Z,89.07
2018-01-30T08:33:51.213Z,89.15
2018-01-30T08:36:18.729Z,89.19
2018-01-30T08:38:46.164Z,89.16
2018-01-30T08:41:13.612Z,88.51
2018-01-30T08:43:41.097Z,89.04
2018-01-30T08:46:09.999Z,87.74
2018-01-30T08:48:41.963Z,87.62
2018-01-30T08:51:15.274Z,87.60
2018-01-30T08:53:45.961Z,87.46
2018-01-30T08:56:18.204Z,88.21
2018-01-30T08:58:46.875Z,87.69
2018-01-30T09:01:19.278Z,87.44
2018-01-30T09:03:46.756Z,86.10
2018-01-30T09:06:17.073Z,86.01
2018-01-30T09:08:45.337Z,87.78
2018-01-30T09:11:12.790Z,87.62
2018-01-30T09:13:40.236Z,86.73
2018-01-30T09:16:07.697Z,87.05
2018-01-30T09:18:35.168Z,86.72
2018-01-30T09:21:03.053Z,86.92
2018-01-30T09:23:30.505Z,85.77
2018-01-30T09:25:57.962Z,85.93
2018-01-30T09:28:25.428Z,85.68
2018-01-30T09:30:52.869Z,84.91
2018-01-30T09:33:20.627Z,85.55
2018-01-30T09:35:48.068Z,85.05
2018-01-30T09:38:15.508Z,84.74
2018-01-30T09:40:42.965Z,84.79
2018-01-30T09:43:10.401Z,85.14
2018-01-30T09:45:37.861Z,84.73
2018-01-30T09:48:05.302Z,84.17
2018-01-30T09:50:32.738Z,83.96
2018-01-30T09:53:00.266Z,84.63
2018-01-30T09:55:27.722Z,84.85
2018-01-30T09:57:55.196Z,84.75
2018-01-30T10:00:22.644Z,84.74
2018-01-30T10:02:50.078Z,84.85
2018-01-30T10:05:17.537Z,84.49
2018-01-30T10:07:44.973Z,84.19
2018-01-30T10:10:12.563Z,82.93
2018-01-30T10:12:40.002Z,83.41
2018-01-30T10:15:07.437Z,83.30
2018-01-30T10:17:34.900Z,83.60
2018-01-30T10:20:02.349Z,83.28
2018-01-30T10:22:29.833Z,82.07
2018-01-30T10:24:57.269Z,82.53
2018-01-30T10:27:24.721Z,82.71
2018-01-30T10:29:52.181Z,82.30
2018-01-30T10:32:19.620Z,82.85
2018-01-30T10:34:47.230Z,83.62
2018-01-30T10:37:14.698Z,83.24
2018-01-30T10:39:42.143Z,82.84
2018-01-30T10:42:09.636Z,82.48
2018-01-30T10:44:37.077Z,81.34
2018-01-30T10:47:04.713Z,81.08
2018-01-30T10:49:32.160Z,80.26
2018-01-30T10:51:59.613Z,81.52
2018-01-30T10:54:27.069Z,82.31
2018-01-30T10:56:54.776Z,83.02
2018-01-30T10:59:22.405Z,81.77
2018-01-30T11:01:49.852Z,82.23
2018-01-30T11:04:17.288Z,81.52
2018-01-30T11:06:44.757Z,81.85
2018-01-30T11:09:12.197Z,81.39
2018-01-30T11:11:39.668Z,81.83
2018-01-30T11:14:07.121Z,81.90
2018-01-30T11:16:34.569Z,80.17
2018-01-30T11:19:02.029Z,81.01
2018-01-30T11:21:29.477Z,81.08
2018-01-30T11:23:57.093Z,81.31
2018-01-30T11:26:24.537Z,80.68
2018-01-30T11:28:51.972Z,80.42
2018-01-30T11:31:19.437Z,81.03
2018-01-30T11:33:46.885Z,80.64
2018-01-30T11:36:14.559Z,80.41
2018-01-30T11:38:41.992Z,79.52
2018-01-30T11:41:09.431Z,79.60
2018-01-30T11:43:36.889Z,78.79
2018-01-30T11:46:04.343Z,73.75
2018-01-30T11:48:31.825Z,72.56
2018-01-30T11:50:59.273Z,73.22
2018-01-30T11:53:26.732Z,73.49
2018-01-30T11:55:54.194Z,73.03
2018-01-30T11:58:21.732Z,72.86
2018-01-30T12:00:49.512Z,71.48
2018-01-30T12:03:16.953Z,72.62
2018-01-30T12:05:44.401Z,70.77
2018-01-30T12:08:11.861Z,71.91
2018-01-30T12:10:39.292Z,71.44
2018-01-30T12:13:06.880Z,71.84
2018-01-30T12:15:34.332Z,70.31
2018-01-30T12:18:01.787Z,69.87
2018-01-30T12:20:29.257Z,68.64
2018-01-30T12:22:56.698Z,66.90
2018-01-30T12:25:24.307Z,66.40
2018-01-30T12:27:51.777Z,67.21
2018-01-30T12:30:19.225Z,66.98
2018-01-30T12:32:46.692Z,67.20
2018-01-30T12:35:14.147Z,64.76
2018-01-30T12:37:41.721Z,65.55
2018-01-30T12:40:09.160Z,66.19
2018-01-30T12:42:36.601Z,65.23
2018-01-30T12:45:04.094Z,65.71
2018-01-30T12:47:31.537Z,66.03
2018-01-30T12:49:59.112Z,66.36
2018-01-30T12:52:26.565Z,65.81
2018-01-30T12:54:54.019Z,66.48
2018-01-30T12:57:21.481Z,66.53
2018-01-30T12:59:48.936Z,66.19
2018-01-30T13:02:16.696Z,65.85
2018-01-30T13:04:44.143Z,67.11
2018-01-30T13:07:11.589Z,66.62
2018-01-30T13:09:39.053Z,66.25
2018-01-30T13:12:06.501Z,65.06
2018-01-30T13:14:34.245Z,66.39
2018-01-30T13:17:01.738Z,66.66
2018-01-30T13:19:29.176Z,65.57
2018-01-30T13:21:56.634Z,63.98
2018-01-30T13:24:24.093Z,65.64
2018-01-30T13:26:51.753Z,66.91
2018-01-30T13:29:19.209Z,66.01
2018-01-30T13:31:46.668Z,65.14
2018-01-30T13:34:14.165Z,65.62
2018-01-30T13:36:41.609Z,64.52
2018-01-30T13:39:09.785Z,65.13
2018-01-30T13:41:37.283Z,64.83
2018-01-30T13:44:04.729Z,64.41
2018-01-30T13:46:32.216Z,64.26
2018-01-30T13:48:59.684Z,64.68
2018-01-30T13:51:27.375Z,63.90
2018-01-30T13:53:54.844Z,64.95
2018-01-30T13:56:22.291Z,63.37
2018-01-30T13:58:49.953Z,64.16
2018-01-30T14:01:17.397Z,63.13
2018-01-30T14:03:45.023Z,63.14
2018-01-30T14:06:12.490Z,63.51
2018-01-30T14:08:39.961Z,61.96
2018-01-30T14:11:07.424Z,62.14
2018-01-30T14:13:34.913Z,59.78
2018-01-30T14:16:04.356Z,59.90
2018-01-30T14:18:31.796Z,60.70
2018-01-30T14:20:59.245Z,59.96
2018-01-30T14:23:26.719Z,59.30
2018-01-30T14:25:54.183Z,58.12
2018-01-30T14:28:21.852Z,57.47
2018-01-30T14:30:49.305Z,57.97
2018-01-30T14:33:16.758Z,57.46
2018-01-30T14:35:44.222Z,56.86
2018-01-30T14:38:11.668Z,57.90
2018-01-30T14:40:39.345Z,57.30
2018-01-30T14:43:06.790Z,57.68
2018-01-30T14:45:34.253Z,58.87
2018-01-30T14:48:02.073Z,59.35
2018-01-30T14:50:30.038Z,59.33
2018-01-30T14:52:57.920Z,60.85
2018-01-30T14:55:25.485Z,60.50
2018-01-30T14:57:52.893Z,60.46
2018-01-30T15:00:20.394Z,61.08
2018-01-30T15:02:47.862Z,60.97
2018-01-30T15:05:15.555Z,61.23
2018-01-30T15:07:43.081Z,61.61
2018-01-30T15:10:11.226Z,62.36
2018-01-30T15:12:38.770Z,61.41
2018-01-30T15:15:06.204Z,62.84
2018-01-30T15:17:33.676Z,63.66
2018-01-30T15:20:01.957Z,63.65
2018-01-30T15:22:29.463Z,62.99
2018-01-30T15:24:58.189Z,62.98
2018-01-30T15:27:25.701Z,62.93
2018-01-30T15:29:53.434Z,64.08
2018-01-30T15:32:20.967Z,64.59
2018-01-30T15:34:48.475Z,64.12
2018-01-30T15:37:16.013Z,64.57
2018-01-30T15:39:43.473Z,64.45
2018-01-30T15:42:11.157Z,64.58
2018-01-30T15:44:38.896Z,64.15
2018-01-30T15:47:06.442Z,64.24
2018-01-30T15:49:34.100Z,65.22
2018-01-30T15:52:01.656Z,65.48
2018-01-30T15:54:29.580Z,68.34
2018-01-30T15:56:57.080Z,65.54
2018-01-30T15:59:24.949Z,66.41
2018-01-30T16:01:52.412Z,67.21
2018-01-30T16:04:19.849Z,69.48
2018-01-30T16:06:47.469Z,68.92
2018-01-30T16:09:14.905Z,69.78
2018-01-30T16:11:42.893Z,68.37
2018-01-30T16:16:37.097Z,68.53
2018-01-30T16:19:04.752Z,68.82
2018-01-30T16:21:32.188Z,68.73
2018-01-30T16:23:59.620Z,69.38
2018-01-30T16:26:27.498Z,69.29
2018-01-30T16:28:54.939Z,69.13
2018-01-30T16:31:22.417Z,69.42
2018-01-30T16:33:49.853Z,70.71
2018-01-30T16:36:17.289Z,71.98
2018-01-30T16:38:44.753Z,70.54
2018-01-30T16:41:12.192Z,70.54
2018-01-30T16:43:39.768Z,71.51
2018-01-30T16:46:07.204Z,71.89
2018-01-30T16:48:34.648Z,72.42
2018-01-30T16:51:02.110Z,72.19
2018-01-30T16:53:29.557Z,71.93
2018-01-30T16:55:57.315Z,72.90
2018-01-30T16:58:24.757Z,73.64
2018-01-30T17:00:52.573Z,73.93
2018-01-30T17:03:20.150Z,75.69
2018-01-30T17:05:47.646Z,75.68
2018-01-30T17:08:15.346Z,76.35
2018-01-30T17:10:42.788Z,75.63
2018-01-30T17:13:10.241Z,75.66
2018-01-30T17:15:37.728Z,75.75
2018-01-30T17:18:05.177Z,76.03
2018-01-30T17:20:32.907Z,75.88
2018-01-30T17:23:00.395Z,76.48
2018-01-30T17:25:27.880Z,76.64
2018-01-30T17:27:55.413Z,77.12
2018-01-30T17:30:23.001Z,77.43
2018-01-30T17:32:50.625Z,77.12
2018-01-30T17:35:18.097Z,78.00
2018-01-30T17:37:45.548Z,79.10
2018-01-30T17:40:13.020Z,78.74
2018-01-30T17:42:40.488Z,76.28
2018-01-30T17:45:08.129Z,76.06
2018-01-30T17:47:35.597Z,76.43
2018-01-30T17:50:03.084Z,76.52
2018-01-30T17:52:30.539Z,76.63
2018-01-30T17:54:57.989Z,76.96
2018-01-30T17:57:25.520Z,77.21
2018-01-30T17:59:52.996Z,77.71
2018-01-30T18:02:20.436Z,77.87
2018-01-30T18:04:47.909Z,75.92
2018-01-30T18:07:15.377Z,76.04
2018-01-30T18:09:43.059Z,77.23
2018-01-30T18:12:10.508Z,77.32
2018-01-30T18:14:37.953Z,77.83
2018-01-30T18:17:05.417Z,78.38
2018-01-30T18:19:33.185Z,79.39
2018-01-30T18:22:00.897Z,79.48
2018-01-30T18:24:28.358Z,79.52
2018-01-30T18:26:55.804Z,79.78
2018-01-30T18:29:23.274Z,79.52
2018-01-30T18:31:50.949Z,79.91
2018-01-30T18:34:18.752Z,80.36
2018-01-30T18:36:46.195Z,80.96
2018-01-30T18:39:13.658Z,80.62
2018-01-30T18:41:41.129Z,80.89
2018-01-30T18:44:08.831Z,80.89
2018-01-30T18:46:36.312Z,81.47
2018-01-30T18:49:03.749Z,81.87
2018-01-30T18:51:31.185Z,81.70
2018-01-30T18:53:58.644Z,81.68
2018-01-30T18:56:26.107Z,81.66
2018-01-30T18:58:54.045Z,81.83
2018-01-30T19:01:21.485Z,82.19
2018-01-30T19:03:48.933Z,81.90
2018-01-30T19:06:16.410Z,82.57
2018-01-30T19:08:43.845Z,82.14
2018-01-30T19:11:11.502Z,82.50
2018-01-30T19:13:38.936Z,82.40
2018-01-30T19:16:06.427Z,82.67
2018-01-30T19:18:34.116Z,82.58
2018-01-30T19:21:01.558Z,82.72
2018-01-30T19:23:29.520Z,83.05
2018-01-30T19:25:56.953Z,83.37
2018-01-30T19:28:24.441Z,83.90
2018-01-30T19:30:52.447Z,83.37
2018-01-30T19:33:19.903Z,83.45
2018-01-30T19:35:48.272Z,83.22
2018-01-30T19:38:15.730Z,83.24
2018-01-30T19:40:44.737Z,83.21
2018-01-30T19:43:12.242Z,83.27
2018-01-30T19:45:39.681Z,83.69
2018-01-30T19:48:07.385Z,83.72
2018-01-30T19:50:34.835Z,84.78
2018-01-30T19:53:02.951Z,85.51
2018-01-30T19:55:30.424Z,85.33
2018-01-30T19:57:59.829Z,85.15
2018-01-30T20:00:27.297Z,84.73
2018-01-30T20:02:54.839Z,84.95
2018-01-30T20:05:22.354Z,85.35
2018-01-30T20:07:49.864Z,85.38
2018-01-30T20:10:17.309Z,85.75
2018-01-30T20:12:44.772Z,85.95
2018-01-30T20:15:12.230Z,85.80
2018-01-30T20:17:39.689Z,85.39
2018-01-30T20:20:07.129Z,85.55
2018-01-30T20:22:34.720Z,85.66
2018-01-30T20:25:02.157Z,85.42
2018-01-30T20:27:29.598Z,85.07
2018-01-30T20:29:57.081Z,84.47
2018-01-30T20:32:24.521Z,85.02
2018-01-30T20:34:52.054Z,85.36
2018-01-30T20:37:22.791Z,84.73
2018-01-30T20:39:50.244Z,83.94
2018-01-30T20:42:17.699Z,84.80
2018-01-30T20:44:45.168Z,84.60
2018-01-30T20:47:12.615Z,84.72
2018-01-30T20:49:40.057Z,84.51
2018-01-30T20:52:08.285Z,84.85
2018-01-30T20:54:35.753Z,84.23
2018-01-30T20:57:03.201Z,84.46
2018-01-30T20:59:31.808Z,84.79
2018-01-30T21:01:59.249Z,84.85
2018-01-30T21:04:26.709Z,82.89
2018-01-30T21:06:54.210Z,83.29
2018-01-30T21:09:21.661Z,83.95
2018-01-30T21:11:49.391Z,84.27
2018-01-30T21:14:17.197Z,84.46
2018-01-30T21:16:44.670Z,84.71
2018-01-30T21:19:12.136Z,84.54
2018-01-30T21:21:39.585Z,84.92
2018-01-30T21:24:07.075Z,85.00
2018-01-30T21:26:34.543Z,85.61
2018-01-30T21:29:01.987Z,85.47
2018-01-30T21:31:29.455Z,85.52
2018-01-30T21:33:56.909Z,85.74
2018-01-30T21:36:24.558Z,85.92
2018-01-30T21:38:52.005Z,87.08
2018-01-30T21:41:19.453Z,87.35
2018-01-30T21:43:46.945Z,87.63
2018-01-30T21:46:14.402Z,87.24
2018-01-30T21:48:41.898Z,86.34
2018-01-30T21:51:09.347Z,85.71
2018-01-30T21:53:36.963Z,84.00
2018-01-30T21:56:04.415Z,84.48
2018-01-30T21:58:31.865Z,85.13
2018-01-30T22:00:59.360Z,85.37
2018-01-30T22:03:26.834Z,85.50
2018-01-30T22:05:54.309Z,85.38
2018-01-30T22:08:21.767Z,84.92
2018-01-30T22:10:49.357Z,85.06
2018-01-30T22:13:16.797Z,85.12
2018-01-30T22:15:45.193Z,86.09
2018-01-30T22:18:12.937Z,86.09
2018-01-30T22:20:40.381Z,85.74
2018-01-30T22:23:08.033Z,85.01
2018-01-30T22:25:35.480Z,85.46
2018-01-30T22:28:02.927Z,85.59
2018-01-30T22:30:30.392Z,86.49
2018-01-30T22:32:57.836Z,86.62
2018-01-30T22:35:25.472Z,86.66
2018-01-30T22:37:52.937Z,86.71
2018-01-30T22:40:20.389Z,87.32
2018-01-30T22:42:47.879Z,87.77
2018-01-30T22:45:15.324Z,87.42
